sensor_id;sensor_type;location;lat;lon;timestamp;temperature;humidity
19224;DHT22;9746;47.180;9.776;2022-12-18T06:44:28;-8.90;99.90
19224;DHT22;9746;47.180;9.776;2022-12-18T06:46:55;-8.90;99.90
19224;DHT22;9746;47.180;9.776;2022-12-18T06:49:25;-8.90;99.90
19224;DHT22;9746;47.180;9.776;2022-12-18T06:51:52;-8.90;99.90
19224;DHT22;9746;47.180;9.776;2022-12-18T06:54:20;-8.90;99.90
19224;DHT22;9746;47.180;9.776;2022-12-18T06:56:47;-8.80;99.90
19224;DHT22;9746;47.180;9.776;2022-12-18T06:59:16;-8.80;99.90
19224;DHT22;9746;47.180;9.776;2022-12-18T07:01:45;-8.70;99.90
19224;DHT22;9746;47.180;9.776;2022-12-18T07:04:12;-8.70;99.90
19224;DHT22;9746;47.180;9.776;2022-12-18T07:06:40;-8.70;99.90
19224;DHT22;9746;47.180;9.776;2022-12-18T07:09:07;-8.70;99.90
19224;DHT22;9746;47.180;9.776;2022-12-18T07:11:40;-8.80;99.90
19224;DHT22;9746;47.180;9.776;2022-12-18T07:14:21;-8.90;99.90
19224;DHT22;9746;47.180;9.776;2022-12-18T07:16:50;-8.90;99.90
19224;DHT22;9746;47.180;9.776;2022-12-18T07:19:17;-8.90;99.90
19224;DHT22;9746;47.180;9.776;2022-12-18T07:21:45;-9.00;99.90
19224;DHT22;9746;47.180;9.776;2022-12-18T07:24:16;-9.00;99.90
19224;DHT22;9746;47.180;9.776;2022-12-18T07:26:46;-9.00;99.90
19224;DHT22;9746;47.180;9.776;2022-12-18T07:29:24;-8.90;99.90
19224;DHT22;9746;47.180;9.776;2022-12-18T07:31:53;-8.80;99.90
19224;DHT22;9746;47.180;9.776;2022-12-18T07:34:29;-8.80;99.90
19224;DHT22;9746;47.180;9.776;2022-12-18T07:36:56;-8.80;99.90
19224;DHT22;9746;47.180;9.776;2022-12-18T07:39:24;-8.80;99.90
19224;DHT22;9746;47.180;9.776;2022-12-18T07:41:52;-8.80;99.90
19224;DHT22;9746;47.180;9.776;2022-12-18T07:44:41;-8.80;99.90
19224;DHT22;9746;47.180;9.776;2022-12-18T07:47:10;-8.90;99.90
19224;DHT22;9746;47.180;9.776;2022-12-18T07:49:38;-8.90;99.90
19224;DHT22;9746;47.180;9.776;2022-12-18T07:52:05;-8.90;99.90
19224;DHT22;9746;47.180;9.776;2022-12-18T07:54:34;-8.80;99.90
19224;DHT22;9746;47.180;9.776;2022-12-18T07:57:01;-8.80;99.90
19224;DHT22;9746;47.180;9.776;2022-12-18T07:59:29;-8.70;99.90
19224;DHT22;9746;47.180;9.776;2022-12-18T08:01:56;-8.70;99.90
19224;DHT22;9746;47.180;9.776;2022-12-18T08:04:55;-8.60;99.90
19224;DHT22;9746;47.180;9.776;2022-12-18T08:07:23;-8.50;99.90
19224;DHT22;9746;47.180;9.776;2022-12-18T08:12:56;-8.20;99.90
19224;DHT22;9746;47.180;9.776;2022-12-18T08:15:23;-8.00;99.90
19224;DHT22;9746;47.180;9.776;2022-12-18T08:17:51;-8.00;99.90
19224;DHT22;9746;47.180;9.776;2022-12-18T08:20:26;-7.90;99.90
19224;DHT22;9746;47.180;9.776;2022-12-18T08:22:54;-7.60;99.90
19224;DHT22;9746;47.180;9.776;2022-12-18T08:25:23;-7.40;99.90
19224;DHT22;9746;47.180;9.776;2022-12-18T08:27:51;-7.10;99.90
19224;DHT22;9746;47.180;9.776;2022-12-18T08:30:22;-6.80;99.90
19224;DHT22;9746;47.180;9.776;2022-12-18T08:32:51;-6.40;99.90
19224;DHT22;9746;47.180;9.776;2022-12-18T08:35:36;-6.10;99.90
19224;DHT22;9746;47.180;9.776;2022-12-18T08:38:27;-5.70;99.90
19224;DHT22;9746;47.180;9.776;2022-12-18T08:40:59;-5.30;99.90
19224;DHT22;9746;47.180;9.776;2022-12-18T08:43:27;-5.00;99.90
19224;DHT22;9746;47.180;9.776;2022-12-18T08:46:11;-4.70;99.90
19224;DHT22;9746;47.180;9.776;2022-12-18T08:49:02;-4.50;99.90
19224;DHT22;9746;47.180;9.776;2022-12-18T08:51:32;-4.30;99.90
19224;DHT22;9746;47.180;9.776;2022-12-18T08:54:36;-4.10;99.90
19224;DHT22;9746;47.180;9.776;2022-12-18T08:57:03;-3.80;99.90
19224;DHT22;9746;47.180;9.776;2022-12-18T09:02:22;-3.20;99.90
19224;DHT22;9746;47.180;9.776;2022-12-18T09:05:06;-3.00;99.90
19224;DHT22;9746;47.180;9.776;2022-12-18T09:07:35;-2.80;99.90
19224;DHT22;9746;47.180;9.776;2022-12-18T09:10:06;-2.50;99.90
19224;DHT22;9746;47.180;9.776;2022-12-18T09:12:34;-2.40;99.90
19224;DHT22;9746;47.180;9.776;2022-12-18T09:15:07;-2.20;99.90
19224;DHT22;9746;47.180;9.776;2022-12-18T09:17:35;-2.10;99.90
19224;DHT22;9746;47.180;9.776;2022-12-18T09:20:10;-1.90;99.90
19224;DHT22;9746;47.180;9.776;2022-12-18T09:22:39;-1.90;99.90
19224;DHT22;9746;47.180;9.776;2022-12-18T09:25:25;-1.70;99.90
19224;DHT22;9746;47.180;9.776;2022-12-18T09:27:57;-1.50;99.90
19224;DHT22;9746;47.180;9.776;2022-12-18T09:30:32;-1.20;99.90
19224;DHT22;9746;47.180;9.776;2022-12-18T09:33:00;-0.90;99.90
19224;DHT22;9746;47.180;9.776;2022-12-18T09:35:27;-0.50;99.90
19224;DHT22;9746;47.180;9.776;2022-12-18T09:37:56;-0.20;99.90
19224;DHT22;9746;47.180;9.776;2022-12-18T09:47:23;0.80;99.90
19224;DHT22;9746;47.180;9.776;2022-12-18T09:53:19;1.00;99.90
19224;DHT22;9746;47.180;9.776;2022-12-18T09:59:21;1.50;99.90
19224;DHT22;9746;47.180;9.776;2022-12-18T10:01:50;1.90;99.90
19224;DHT22;9746;47.180;9.776;2022-12-18T10:07:55;2.30;99.90
19224;DHT22;9746;47.180;9.776;2022-12-18T10:10:45;2.70;99.90
19224;DHT22;9746;47.180;9.776;2022-12-18T10:13:23;3.10;99.90
19224;DHT22;9746;47.180;9.776;2022-12-18T10:19:25;3.40;99.90
19224;DHT22;9746;47.180;9.776;2022-12-18T10:22:07;3.40;99.90
19224;DHT22;9746;47.180;9.776;2022-12-18T10:28:07;3.30;99.90
19224;DHT22;9746;47.180;9.776;2022-12-18T10:37:17;3.60;99.90
19224;DHT22;9746;47.180;9.776;2022-12-18T10:43:13;4.30;99.90
19224;DHT22;9746;47.180;9.776;2022-12-18T10:46:01;4.50;99.90
19224;DHT22;9746;47.180;9.776;2022-12-18T10:48:31;4.80;99.90
19224;DHT22;9746;47.180;9.776;2022-12-18T10:51:00;5.20;99.90
19224;DHT22;9746;47.180;9.776;2022-12-18T10:53:29;5.40;99.90
19224;DHT22;9746;47.180;9.776;2022-12-18T10:56:00;5.70;99.90
19224;DHT22;9746;47.180;9.776;2022-12-18T10:58:31;6.00;99.90
19224;DHT22;9746;47.180;9.776;2022-12-18T11:04:04;6.50;99.90
19224;DHT22;9746;47.180;9.776;2022-12-18T11:06:56;6.70;99.90
19224;DHT22;9746;47.180;9.776;2022-12-18T11:09:28;6.90;99.90
19224;DHT22;9746;47.180;9.776;2022-12-18T11:11:57;7.10;99.90
19224;DHT22;9746;47.180;9.776;2022-12-18T11:14:28;7.30;99.90
19224;DHT22;9746;47.180;9.776;2022-12-18T11:16:58;7.40;99.90
19224;DHT22;9746;47.180;9.776;2022-12-18T11:22:56;7.80;99.90
19224;DHT22;9746;47.180;9.776;2022-12-18T11:28:38;7.80;99.90
19224;DHT22;9746;47.180;9.776;2022-12-18T11:34:31;8.20;99.90
19224;DHT22;9746;47.180;9.776;2022-12-18T11:37:01;8.40;99.90
19224;DHT22;9746;47.180;9.776;2022-12-18T11:39:35;8.50;99.90
19224;DHT22;9746;47.180;9.776;2022-12-18T11:42:09;8.70;99.90
19224;DHT22;9746;47.180;9.776;2022-12-18T11:44:57;9.00;99.90
19224;DHT22;9746;47.180;9.776;2022-12-18T11:47:29;9.20;99.90
19224;DHT22;9746;47.180;9.776;2022-12-18T11:50:17;9.50;99.90
19224;DHT22;9746;47.180;9.776;2022-12-18T11:52:45;9.80;99.90
19224;DHT22;9746;47.180;9.776;2022-12-18T11:55:15;9.90;99.90
19224;DHT22;9746;47.180;9.776;2022-12-18T11:57:51;10.00;99.90
19224;DHT22;9746;47.180;9.776;2022-12-18T12:00:21;10.30;99.90
19224;DHT22;9746;47.180;9.776;2022-12-18T12:03:24;10.10;99.90
19224;DHT22;9746;47.180;9.776;2022-12-18T12:06:04;10.00;99.90
19224;DHT22;9746;47.180;9.776;2022-12-18T12:08:44;10.10;99.90
19224;DHT22;9746;47.180;9.776;2022-12-18T12:11:22;10.40;99.90
19224;DHT22;9746;47.180;9.776;2022-12-18T12:14:00;10.70;99.90
19224;DHT22;9746;47.180;9.776;2022-12-18T12:16:37;10.80;99.90
19224;DHT22;9746;47.180;9.776;2022-12-18T12:19:21;11.10;99.90
19224;DHT22;9746;47.180;9.776;2022-12-18T12:21:57;11.20;99.90
19224;DHT22;9746;47.180;9.776;2022-12-18T12:24:36;11.30;99.90
19224;DHT22;9746;47.180;9.776;2022-12-18T12:27:13;11.00;99.90
19224;DHT22;9746;47.180;9.776;2022-12-18T12:29:55;10.50;99.90
19224;DHT22;9746;47.180;9.776;2022-12-18T12:32:36;10.00;99.90
19224;DHT22;9746;47.180;9.776;2022-12-18T12:35:22;9.90;99.90
19224;DHT22;9746;47.180;9.776;2022-12-18T12:38:04;9.40;99.90
19224;DHT22;9746;47.180;9.776;2022-12-18T12:40:58;9.30;99.90
19224;DHT22;9746;47.180;9.776;2022-12-18T12:43:32;9.00;99.90
19224;DHT22;9746;47.180;9.776;2022-12-18T12:46:22;8.70;99.90
19224;DHT22;9746;47.180;9.776;2022-12-18T12:48:52;8.90;99.90
19224;DHT22;9746;47.180;9.776;2022-12-18T12:51:28;8.90;99.90
19224;DHT22;9746;47.180;9.776;2022-12-18T12:53:58;8.60;99.90
19224;DHT22;9746;47.180;9.776;2022-12-18T12:56:32;8.70;99.90
19224;DHT22;9746;47.180;9.776;2022-12-18T12:59:13;8.80;99.90
19224;DHT22;9746;47.180;9.776;2022-12-18T13:01:57;8.70;99.90
19224;DHT22;9746;47.180;9.776;2022-12-18T13:04:33;8.40;99.90
19224;DHT22;9746;47.180;9.776;2022-12-18T13:07:09;7.90;99.90
19224;DHT22;9746;47.180;9.776;2022-12-18T13:10:22;7.00;99.90
19224;DHT22;9746;47.180;9.776;2022-12-18T13:12:58;6.40;99.90
19224;DHT22;9746;47.180;9.776;2022-12-18T13:15:33;5.70;99.90
19224;DHT22;9746;47.180;9.776;2022-12-18T13:18:15;5.00;99.90
19224;DHT22;9746;47.180;9.776;2022-12-18T13:20:44;4.70;99.90
19224;DHT22;9746;47.180;9.776;2022-12-18T13:23:42;4.40;99.90
19224;DHT22;9746;47.180;9.776;2022-12-18T13:26:30;4.30;99.90
19224;DHT22;9746;47.180;9.776;2022-12-18T13:29:11;4.30;99.90
19224;DHT22;9746;47.180;9.776;2022-12-18T13:32:00;4.50;99.90
19224;DHT22;9746;47.180;9.776;2022-12-18T13:34:29;4.40;99.90
19224;DHT22;9746;47.180;9.776;2022-12-18T13:37:41;4.20;99.90
19224;DHT22;9746;47.180;9.776;2022-12-18T13:43:28;3.80;99.90
19224;DHT22;9746;47.180;9.776;2022-12-18T13:46:03;3.70;99.90
19224;DHT22;9746;47.180;9.776;2022-12-18T13:48:33;3.80;99.90
19224;DHT22;9746;47.180;9.776;2022-12-18T13:51:05;3.70;99.90
19224;DHT22;9746;47.180;9.776;2022-12-18T13:53:37;3.80;99.90
19224;DHT22;9746;47.180;9.776;2022-12-18T13:56:07;3.60;99.90
19224;DHT22;9746;47.180;9.776;2022-12-18T13:58:36;3.40;99.90
19224;DHT22;9746;47.180;9.776;2022-12-18T14:01:03;3.20;99.90
19224;DHT22;9746;47.180;9.776;2022-12-18T14:03:31;3.20;99.90
19224;DHT22;9746;47.180;9.776;2022-12-18T14:06:04;3.20;99.90
19224;DHT22;9746;47.180;9.776;2022-12-18T14:08:39;3.10;99.90
19224;DHT22;9746;47.180;9.776;2022-12-18T14:11:22;3.10;99.90
19224;DHT22;9746;47.180;9.776;2022-12-18T14:13:52;3.10;99.90
19224;DHT22;9746;47.180;9.776;2022-12-18T14:16:22;3.00;99.90
19224;DHT22;9746;47.180;9.776;2022-12-18T14:18:53;2.80;99.90
19224;DHT22;9746;47.180;9.776;2022-12-18T14:21:24;2.50;99.90
19224;DHT22;9746;47.180;9.776;2022-12-18T14:24:04;2.30;99.90
19224;DHT22;9746;47.180;9.776;2022-12-18T14:26:33;2.10;99.90
19224;DHT22;9746;47.180;9.776;2022-12-18T14:29:19;1.90;99.90
19224;DHT22;9746;47.180;9.776;2022-12-18T14:32:06;1.70;99.90
19224;DHT22;9746;47.180;9.776;2022-12-18T14:34:33;1.60;99.90
19224;DHT22;9746;47.180;9.776;2022-12-18T14:37:02;1.50;99.90
19224;DHT22;9746;47.180;9.776;2022-12-18T14:39:30;1.60;99.90
19224;DHT22;9746;47.180;9.776;2022-12-18T14:42:03;1.60;99.90
19224;DHT22;9746;47.180;9.776;2022-12-18T14:44:33;1.70;99.90
19224;DHT22;9746;47.180;9.776;2022-12-18T14:47:04;1.70;99.90
19224;DHT22;9746;47.180;9.776;2022-12-18T14:49:33;1.60;99.90
19224;DHT22;9746;47.180;9.776;2022-12-18T14:52:06;1.50;99.90
19224;DHT22;9746;47.180;9.776;2022-12-18T14:54:35;1.10;99.90
19224;DHT22;9746;47.180;9.776;2022-12-18T14:57:17;0.80;99.90
19224;DHT22;9746;47.180;9.776;2022-12-18T14:59:50;0.50;99.90
19224;DHT22;9746;47.180;9.776;2022-12-18T15:02:21;0.20;99.90
19224;DHT22;9746;47.180;9.776;2022-12-18T15:05:00;0.10;99.90
19224;DHT22;9746;47.180;9.776;2022-12-18T15:07:42;-0.10;99.90
19224;DHT22;9746;47.180;9.776;2022-12-18T15:10:13;-0.30;99.90
19224;DHT22;9746;47.180;9.776;2022-12-18T15:13:22;-0.40;99.90
19224;DHT22;9746;47.180;9.776;2022-12-18T15:15:53;-0.50;99.90
19224;DHT22;9746;47.180;9.776;2022-12-18T15:18:26;-0.60;99.90
19224;DHT22;9746;47.180;9.776;2022-12-18T15:21:09;-0.80;99.90
19224;DHT22;9746;47.180;9.776;2022-12-18T15:23:47;-0.90;99.90
19224;DHT22;9746;47.180;9.776;2022-12-18T15:26:18;-0.80;99.90
19224;DHT22;9746;47.180;9.776;2022-12-18T15:28:47;-0.90;99.90
19224;DHT22;9746;47.180;9.776;2022-12-18T15:31:34;-1.00;99.90
19224;DHT22;9746;47.180;9.776;2022-12-18T15:34:11;-1.10;99.90
19224;DHT22;9746;47.180;9.776;2022-12-18T15:36:39;-1.20;99.90
19224;DHT22;9746;47.180;9.776;2022-12-18T15:39:11;-1.30;99.90
19224;DHT22;9746;47.180;9.776;2022-12-18T15:41:39;-1.30;99.90
19224;DHT22;9746;47.180;9.776;2022-12-18T15:44:27;-1.30;99.90
19224;DHT22;9746;47.180;9.776;2022-12-18T15:46:55;-1.50;99.90
19224;DHT22;9746;47.180;9.776;2022-12-18T15:49:22;-1.70;99.90
19224;DHT22;9746;47.180;9.776;2022-12-18T15:51:59;-1.80;99.90
19224;DHT22;9746;47.180;9.776;2022-12-18T15:54:27;-1.90;99.90
19224;DHT22;9746;47.180;9.776;2022-12-18T15:57:13;-2.00;99.90
19224;DHT22;9746;47.180;9.776;2022-12-18T15:59:51;-2.10;99.90
19224;DHT22;9746;47.180;9.776;2022-12-18T16:02:21;-2.20;99.90
19224;DHT22;9746;47.180;9.776;2022-12-18T16:04:49;-2.20;99.90
19224;DHT22;9746;47.180;9.776;2022-12-18T16:07:18;-2.30;99.90
19224;DHT22;9746;47.180;9.776;2022-12-18T16:09:45;-2.30;99.90
19224;DHT22;9746;47.180;9.776;2022-12-18T16:12:21;-2.40;99.90
19224;DHT22;9746;47.180;9.776;2022-12-18T16:14:49;-2.40;99.90
19224;DHT22;9746;47.180;9.776;2022-12-18T16:17:17;-2.40;99.90
19224;DHT22;9746;47.180;9.776;2022-12-18T16:19:46;-2.50;99.90
19224;DHT22;9746;47.180;9.776;2022-12-18T16:22:20;-2.70;99.90
19224;DHT22;9746;47.180;9.776;2022-12-18T16:24:49;-2.80;99.90
19224;DHT22;9746;47.180;9.776;2022-12-18T16:27:18;-2.80;99.90
19224;DHT22;9746;47.180;9.776;2022-12-18T16:29:45;-2.80;99.90
19224;DHT22;9746;47.180;9.776;2022-12-18T16:32:17;-3.00;99.90
19224;DHT22;9746;47.180;9.776;2022-12-18T16:34:47;-3.10;99.90
19224;DHT22;9746;47.180;9.776;2022-12-18T16:37:22;-3.10;99.90
19224;DHT22;9746;47.180;9.776;2022-12-18T16:39:49;-3.10;99.90
19224;DHT22;9746;47.180;9.776;2022-12-18T16:42:18;-3.10;99.90
19224;DHT22;9746;47.180;9.776;2022-12-18T16:44:48;-3.10;99.90
19224;DHT22;9746;47.180;9.776;2022-12-18T16:47:37;-3.20;99.90
19224;DHT22;9746;47.180;9.776;2022-12-18T16:50:09;-3.20;99.90
19224;DHT22;9746;47.180;9.776;2022-12-18T16:52:46;-3.30;99.90
19224;DHT22;9746;47.180;9.776;2022-12-18T16:55:15;-3.40;99.90
19224;DHT22;9746;47.180;9.776;2022-12-18T16:58:00;-3.40;99.90
19224;DHT22;9746;47.180;9.776;2022-12-18T17:00:31;-3.40;99.90
19224;DHT22;9746;47.180;9.776;2022-12-18T17:03:07;-3.50;99.90
19224;DHT22;9746;47.180;9.776;2022-12-18T17:05:36;-3.50;99.90
19224;DHT22;9746;47.180;9.776;2022-12-18T17:08:05;-3.50;99.90
19224;DHT22;9746;47.180;9.776;2022-12-18T17:10:34;-3.60;99.90
19224;DHT22;9746;47.180;9.776;2022-12-18T17:13:03;-3.60;99.90
19224;DHT22;9746;47.180;9.776;2022-12-18T17:15:32;-3.60;99.90
19224;DHT22;9746;47.180;9.776;2022-12-18T17:21:24;-3.60;99.90
19224;DHT22;9746;47.180;9.776;2022-12-18T17:23:52;-3.60;99.90
19224;DHT22;9746;47.180;9.776;2022-12-18T17:26:20;-3.70;99.90
19224;DHT22;9746;47.180;9.776;2022-12-18T17:29:01;-3.70;99.90
19224;DHT22;9746;47.180;9.776;2022-12-18T17:31:29;-3.70;99.90
19224;DHT22;9746;47.180;9.776;2022-12-18T17:37:20;-3.60;99.90
19224;DHT22;9746;47.180;9.776;2022-12-18T17:39:47;-3.50;99.90
19224;DHT22;9746;47.180;9.776;2022-12-18T17:42:23;-3.50;99.90
19224;DHT22;9746;47.180;9.776;2022-12-18T17:44:51;-3.60;99.90
19224;DHT22;9746;47.180;9.776;2022-12-18T17:50:40;-3.60;99.90
19224;DHT22;9746;47.180;9.776;2022-12-18T17:53:24;-3.60;99.90
19224;DHT22;9746;47.180;9.776;2022-12-18T17:55:53;-3.60;99.90
19224;DHT22;9746;47.180;9.776;2022-12-18T17:58:23;-3.50;99.90
19224;DHT22;9746;47.180;9.776;2022-12-18T18:00:51;-3.50;99.90
19224;DHT22;9746;47.180;9.776;2022-12-18T18:03:21;-3.50;99.90
19224;DHT22;9746;47.180;9.776;2022-12-18T18:05:54;-3.50;99.90
19224;DHT22;9746;47.180;9.776;2022-12-18T18:08:30;-3.50;99.90
19224;DHT22;9746;47.180;9.776;2022-12-18T18:10:57;-3.50;99.90
19224;DHT22;9746;47.180;9.776;2022-12-18T18:13:47;-3.50;99.90
19224;DHT22;9746;47.180;9.776;2022-12-18T18:16:31;-3.50;99.90
19224;DHT22;9746;47.180;9.776;2022-12-18T18:19:01;-3.50;99.90
19224;DHT22;9746;47.180;9.776;2022-12-18T18:21:29;-3.50;99.90
19224;DHT22;9746;47.180;9.776;2022-12-18T18:24:00;-3.60;99.90
19224;DHT22;9746;47.180;9.776;2022-12-18T18:26:29;-3.60;99.90
19224;DHT22;9746;47.180;9.776;2022-12-18T18:29:13;-3.60;99.90
19224;DHT22;9746;47.180;9.776;2022-12-18T18:31:41;-3.60;99.90
19224;DHT22;9746;47.180;9.776;2022-12-18T18:34:24;-3.60;99.90
19224;DHT22;9746;47.180;9.776;2022-12-18T18:36:56;-3.60;99.90
19224;DHT22;9746;47.180;9.776;2022-12-18T18:39:42;-3.70;99.90
19224;DHT22;9746;47.180;9.776;2022-12-18T18:42:09;-3.70;99.90
19224;DHT22;9746;47.180;9.776;2022-12-18T18:44:37;-3.70;99.90
19224;DHT22;9746;47.180;9.776;2022-12-18T18:47:04;-3.70;99.90
19224;DHT22;9746;47.180;9.776;2022-12-18T18:49:37;-3.70;99.90
19224;DHT22;9746;47.180;9.776;2022-12-18T18:52:05;-3.70;99.90
19224;DHT22;9746;47.180;9.776;2022-12-18T18:57:51;-3.60;99.90
19224;DHT22;9746;47.180;9.776;2022-12-18T19:00:18;-3.60;99.90
19224;DHT22;9746;47.180;9.776;2022-12-18T19:02:47;-3.60;99.90
19224;DHT22;9746;47.180;9.776;2022-12-18T19:05:14;-3.70;99.90
19224;DHT22;9746;47.180;9.776;2022-12-18T19:07:50;-3.70;99.90
19224;DHT22;9746;47.180;9.776;2022-12-18T19:10:18;-3.70;99.90
19224;DHT22;9746;47.180;9.776;2022-12-18T19:13:02;-3.70;99.90
19224;DHT22;9746;47.180;9.776;2022-12-18T19:15:47;-3.80;99.90
19224;DHT22;9746;47.180;9.776;2022-12-18T19:18:15;-3.80;99.90
19224;DHT22;9746;47.180;9.776;2022-12-18T19:20:43;-3.90;99.90
19224;DHT22;9746;47.180;9.776;2022-12-18T19:23:20;-4.00;99.90
19224;DHT22;9746;47.180;9.776;2022-12-18T19:25:47;-4.00;99.90
19224;DHT22;9746;47.180;9.776;2022-12-18T19:28:16;-4.10;99.90
19224;DHT22;9746;47.180;9.776;2022-12-18T19:30:43;-4.10;99.90
19224;DHT22;9746;47.180;9.776;2022-12-18T19:33:17;-4.00;99.90
19224;DHT22;9746;47.180;9.776;2022-12-18T19:35:45;-4.00;99.90
19224;DHT22;9746;47.180;9.776;2022-12-18T19:38:14;-3.90;99.90
19224;DHT22;9746;47.180;9.776;2022-12-18T19:40:41;-3.80;99.90
19224;DHT22;9746;47.180;9.776;2022-12-18T19:43:11;-3.70;99.90
19224;DHT22;9746;47.180;9.776;2022-12-18T19:45:41;-3.60;99.90
19224;DHT22;9746;47.180;9.776;2022-12-18T19:48:09;-3.50;99.90
19224;DHT22;9746;47.180;9.776;2022-12-18T19:50:40;-3.50;99.90
19224;DHT22;9746;47.180;9.776;2022-12-18T19:53:16;-3.40;99.90
19224;DHT22;9746;47.180;9.776;2022-12-18T19:55:44;-3.30;99.90
19224;DHT22;9746;47.180;9.776;2022-12-18T19:58:11;-3.40;99.90
19224;DHT22;9746;47.180;9.776;2022-12-18T20:00:40;-3.30;99.90
19224;DHT22;9746;47.180;9.776;2022-12-18T20:03:11;-3.30;99.90
19224;DHT22;9746;47.180;9.776;2022-12-18T20:05:39;-3.20;99.90
19224;DHT22;9746;47.180;9.776;2022-12-18T20:08:13;-3.20;99.90
19224;DHT22;9746;47.180;9.776;2022-12-18T20:10:40;-3.20;99.90
19224;DHT22;9746;47.180;9.776;2022-12-18T20:13:12;-3.20;99.90
19224;DHT22;9746;47.180;9.776;2022-12-18T20:15:40;-3.10;99.90
19224;DHT22;9746;47.180;9.776;2022-12-18T20:18:14;-3.10;99.90
19224;DHT22;9746;47.180;9.776;2022-12-18T20:20:41;-3.10;99.90
19224;DHT22;9746;47.180;9.776;2022-12-18T20:23:18;-3.10;99.90
19224;DHT22;9746;47.180;9.776;2022-12-18T20:25:46;-3.10;99.90
19224;DHT22;9746;47.180;9.776;2022-12-18T20:28:16;-3.10;99.90
19224;DHT22;9746;47.180;9.776;2022-12-18T20:30:45;-3.10;99.90
19224;DHT22;9746;47.180;9.776;2022-12-18T20:33:13;-3.10;99.90
19224;DHT22;9746;47.180;9.776;2022-12-18T20:35:41;-3.00;99.90
19224;DHT22;9746;47.180;9.776;2022-12-18T20:38:09;-3.00;99.90
19224;DHT22;9746;47.180;9.776;2022-12-18T20:40:39;-3.00;99.90
19224;DHT22;9746;47.180;9.776;2022-12-18T20:43:07;-3.00;99.90
19224;DHT22;9746;47.180;9.776;2022-12-18T20:45:34;-2.90;99.90
19224;DHT22;9746;47.180;9.776;2022-12-18T20:48:05;-2.90;99.90
19224;DHT22;9746;47.180;9.776;2022-12-18T20:50:33;-3.00;99.90
19224;DHT22;9746;47.180;9.776;2022-12-18T20:53:03;-3.00;99.90
19224;DHT22;9746;47.180;9.776;2022-12-18T20:55:30;-3.00;99.90
19224;DHT22;9746;47.180;9.776;2022-12-18T20:57:58;-2.90;99.90
19224;DHT22;9746;47.180;9.776;2022-12-18T21:00:32;-2.90;99.90
19224;DHT22;9746;47.180;9.776;2022-12-18T21:03:00;-2.80;99.90
19224;DHT22;9746;47.180;9.776;2022-12-18T21:05:44;-2.80;99.90
19224;DHT22;9746;47.180;9.776;2022-12-18T21:08:30;-2.80;99.90
19224;DHT22;9746;47.180;9.776;2022-12-18T21:11:12;-2.70;99.90
19224;DHT22;9746;47.180;9.776;2022-12-18T21:14:10;-2.70;99.90
